Time;durP1;ratioP1;P1;durP2;ratioP2;P2;SDS_P1;SDS_P2;PMS_P1;PMS_P2;Temp;Humidity;BMP_temperature;BMP_pressure;BME280_temperature;BME280_humidity;BME280_pressure;Samples;Min_cycle;Max_cycle;Signal;HPM_P1;HPM_P2
2023/10/12 00:07:33;;;;;;;9.55;4.63;;;20.00;68.20;;;;;;5072063;28;20202;-64
2023/10/12 00:10:19;;;;;;;6.93;5.05;;;20.00;68.20;;;;;;5071389;28;20210;-63
2023/10/12 00:12:47;;;;;;;9.07;5.20;;;20.00;68.20;;;;;;5071292;28;20187;-63
2023/10/12 00:15:23;;;;;;;6.15;4.03;;;20.00;68.20;;;;;;5070966;28;20230;-64
2023/10/12 00:17:52;;;;;;;8.68;4.43;;;20.00;68.20;;;;;;5070786;28;20272;-64
2023/10/12 00:20:25;;;;;;;8.50;4.93;;;20.00;68.20;;;;;;5072499;28;20219;-64
2023/10/12 00:22:53;;;;;;;9.95;5.50;;;20.00;68.20;;;;;;5074968;28;20191;-65
2023/10/12 00:25:23;;;;;;;7.43;4.72;;;20.00;68.30;;;;;;5074831;28;20234;-63
2023/10/12 00:27:51;;;;;;;8.63;5.35;;;20.00;68.30;;;;;;5072870;28;20663;-64
2023/10/12 00:31:16;;;;;;;6.97;4.65;;;20.00;68.30;;;;;;5071761;28;20227;-62
2023/10/12 00:33:44;;;;;;;8.00;5.00;;;20.00;68.30;;;;;;5074852;28;20579;-64
2023/10/12 00:36:21;;;;;;;8.50;4.40;;;20.00;68.30;;;;;;5074787;28;20230;-63
2023/10/12 00:38:52;;;;;;;10.35;4.70;;;20.00;68.30;;;;;;5074511;28;20980;-64
2023/10/12 00:41:24;;;;;;;9.07;5.05;;;20.00;68.30;;;;;;5075231;28;20218;-64
2023/10/12 00:43:59;;;;;;;7.45;4.97;;;20.00;68.30;;;;;;5074669;28;20635;-64
2023/10/12 00:46:40;;;;;;;10.57;4.65;;;20.00;68.30;;;;;;5075021;28;20218;-63
2023/10/12 00:52:35;;;;;;;7.68;4.70;;;20.00;68.40;;;;;;5074796;28;20257;-64
2023/10/12 00:55:21;;;;;;;10.30;5.15;;;20.00;68.40;;;;;;5074291;28;20301;-62
2023/10/12 00:57:51;;;;;;;7.00;3.90;;;20.00;68.30;;;;;;5074876;28;20194;-64
2023/10/12 01:00:19;;;;;;;8.07;4.78;;;20.10;68.40;;;;;;5074551;28;20218;-64
2023/10/12 01:03:07;;;;;;;7.13;4.65;;;20.00;68.30;;;;;;5074852;28;20521;-64
2023/10/12 01:05:36;;;;;;;7.43;4.18;;;20.00;68.30;;;;;;5074230;28;20665;-64
2023/10/12 01:08:04;;;;;;;9.25;4.40;;;20.00;68.30;;;;;;5074249;28;20195;-63
2023/10/12 01:10:35;;;;;;;7.78;4.20;;;20.00;68.30;;;;;;5074577;28;20214;-63
2023/10/12 01:13:04;;;;;;;11.18;4.68;;;20.00;68.30;;;;;;5074375;28;20198;-61
2023/10/12 01:18:35;;;;;;;8.48;4.40;;;20.00;68.30;;;;;;5018755;28;20671;-63
2023/10/12 01:21:11;;;;;;;11.32;4.50;;;20.00;68.30;;;;;;5074269;28;20734;-63
2023/10/12 01:23:42;;;;;;;7.68;4.13;;;20.00;68.30;;;;;;5073760;28;20561;-64
2023/10/12 01:26:11;;;;;;;8.63;4.50;;;20.00;68.40;;;;;;5073990;28;20219;-64
2023/10/12 01:28:39;;;;;;;11.77;4.65;;;20.00;68.40;;;;;;5073456;28;20766;-64
2023/10/12 01:31:07;;;;;;;15.38;4.57;;;20.00;68.30;;;;;;5053988;28;20226;-64
2023/10/12 01:33:34;;;;;;;12.50;4.57;;;19.90;68.20;;;;;;5053744;28;20199;-64
2023/10/12 01:36:02;;;;;;;7.63;4.68;;;20.00;68.40;;;;;;5054174;28;20231;-64
2023/10/12 01:38:36;;;;;;;5.80;3.95;;;20.00;69.10;;;;;;5053537;28;20192;-63
2023/10/12 01:41:09;;;;;;;8.38;5.07;;;20.00;68.40;;;;;;5054069;28;20219;-64
2023/10/12 01:43:37;;;;;;;7.13;4.38;;;20.00;68.40;;;;;;5053948;28;20188;-64
2023/10/12 01:46:07;;;;;;;10.50;4.35;;;20.00;68.40;;;;;;5053379;28;20307;-63
2023/10/12 01:48:36;;;;;;;8.77;4.63;;;20.00;68.40;;;;;;5053391;28;20195;-63
2023/10/12 01:51:14;;;;;;;10.35;4.60;;;20.00;68.40;;;;;;5053451;28;20701;-64
2023/10/12 01:53:42;;;;;;;9.20;4.30;;;20.00;68.40;;;;;;5053452;28;20203;-63
2023/10/12 01:56:11;;;;;;;9.40;5.00;;;20.00;68.40;;;;;;5053693;28;20222;-64
2023/10/12 01:58:43;;;;;;;8.43;4.30;;;20.00;68.50;;;;;;5053262;28;20192;-64
2023/10/12 02:01:18;;;;;;;8.68;4.85;;;20.00;68.50;;;;;;5053451;28;20243;-64
2023/10/12 02:03:47;;;;;;;8.55;4.75;;;20.00;68.50;;;;;;5053526;28;20191;-63
2023/10/12 02:06:16;;;;;;;7.97;4.28;;;20.00;68.50;;;;;;5053443;28;20215;-64
2023/10/12 02:08:49;;;;;;;9.55;4.30;;;20.00;68.50;;;;;;5052781;28;20200;-64
2023/10/12 02:11:42;;;;;;;9.48;4.55;;;20.00;68.50;;;;;;5053195;28;20254;-64
2023/10/12 02:14:12;;;;;;;11.45;4.53;;;20.00;68.50;;;;;;5052882;28;20192;-64
2023/10/12 02:16:52;;;;;;;7.30;4.60;;;20.00;68.50;;;;;;5052593;28;20269;-64
2023/10/12 02:19:31;;;;;;;11.40;4.40;;;20.00;68.60;;;;;;5053182;28;20548;-64
2023/10/12 02:22:01;;;;;;;8.75;4.35;;;19.90;68.50;;;;;;5052947;28;20231;-64
2023/10/12 02:24:29;;;;;;;8.73;4.90;;;19.90;68.50;;;;;;5052599;28;20225;-63
2023/10/12 02:27:00;;;;;;;7.80;4.50;;;20.00;68.60;;;;;;5052688;28;20285;-65
2023/10/12 02:29:32;;;;;;;10.40;5.03;;;20.00;68.60;;;;;;5062233;28;20230;-64
2023/10/12 02:32:14;;;;;;;8.73;4.35;;;19.90;68.50;;;;;;5072673;28;20264;-64
2023/10/12 02:34:43;;;;;;;10.88;4.40;;;19.90;68.50;;;;;;5072882;28;20190;-63
2023/10/12 02:37:21;;;;;;;6.70;4.00;;;19.90;68.50;;;;;;5072696;28;20209;-63
2023/10/12 02:49:35;;;;;;;6.40;4.65;;;19.90;68.60;;;;;;5072609;28;20174;-64
2023/10/12 02:52:06;;;;;;;8.13;4.30;;;19.90;68.70;;;;;;5072562;28;20225;-64
2023/10/12 02:54:38;;;;;;;7.47;4.45;;;19.90;68.60;;;;;;5072403;28;20664;-64
2023/10/12 02:57:06;;;;;;;7.47;4.07;;;19.90;68.60;;;;;;5072690;28;20214;-64
2023/10/12 02:59:38;;;;;;;10.07;4.20;;;19.90;68.70;;;;;;5070406;28;20260;-64
2023/10/12 03:02:18;;;;;;;7.53;4.38;;;19.90;68.70;;;;;;5072736;28;20250;-64
2023/10/12 03:04:48;;;;;;;7.78;4.80;;;19.90;68.70;;;;;;5072304;28;20222;-63
2023/10/12 03:07:22;;;;;;;12.18;4.78;;;19.90;68.70;;;;;;5071991;28;20191;-64
2023/10/12 03:09:55;;;;;;;8.50;5.32;;;19.90;68.60;;;;;;5072456;28;20194;-64
2023/10/12 03:12:24;;;;;;;9.35;4.85;;;19.90;68.70;;;;;;5072465;28;20197;-64
2023/10/12 03:14:52;;;;;;;9.85;4.68;;;19.90;68.60;;;;;;5072161;28;20249;-63
2023/10/12 03:17:20;;;;;;;7.72;4.43;;;19.90;68.70;;;;;;5072473;28;20245;-62
2023/10/12 03:19:55;;;;;;;7.45;4.57;;;19.90;68.70;;;;;;5072097;28;20703;-64
2023/10/12 03:22:31;;;;;;;10.60;4.25;;;19.90;68.70;;;;;;5071848;28;20733;-61
2023/10/12 03:25:28;;;;;;;;;;;;;;;;;;;;;
2023/10/12 03:27:53;;;;;;;9.20;4.65;;;19.90;68.80;;;;;;5070935;28;20210;-63
2023/10/12 03:30:24;;;;;;;8.68;4.45;;;19.90;68.80;;;;;;5071750;28;20242;-64
2023/10/12 03:32:56;;;;;;;10.10;5.07;;;19.90;68.70;;;;;;5072026;28;20640;-64
2023/10/12 03:35:33;;;;;;;7.88;4.13;;;19.90;68.80;;;;;;5071997;28;20314;-63
2023/10/12 03:38:12;;;;;;;7.60;4.25;;;19.90;68.90;;;;;;5071896;28;20660;-64
2023/10/12 03:40:51;;;;;;;8.70;5.25;;;19.90;68.80;;;;;;5072352;28;20272;-63
2023/10/12 03:43:26;;;;;;;7.03;4.20;;;19.90;68.80;;;;;;5072001;28;20190;-64
2023/10/12 03:46:08;;;;;;;9.43;4.68;;;19.90;68.90;;;;;;5071847;28;20291;-64
2023/10/12 03:49:04;;;;;;;10.07;4.63;;;19.90;68.90;;;;;;5072391;28;20539;-63
2023/10/12 03:51:40;;;;;;;10.02;4.45;;;19.90;68.90;;;;;;5071873;28;20574;-63
2023/10/12 03:54:18;;;;;;;7.80;4.95;;;19.90;68.80;;;;;;5072058;28;20186;-63
2023/10/12 03:56:48;;;;;;;13.05;5.25;;;19.90;68.90;;;;;;5075258;28;20250;-64
2023/10/12 04:02:58;;;;;;;12.43;5.18;;;19.90;69.00;;;;;;5048167;28;20199;-64
2023/10/12 04:05:51;;;;;;;9.00;4.45;;;19.90;69.00;;;;;;5072601;28;20859;-64
2023/10/12 04:11:46;;;;;;;10.00;4.85;;;19.80;68.90;;;;;;5075116;28;20602;-63
2023/10/12 04:17:07;;;;;;;7.65;5.28;;;19.90;69.00;;;;;;5064777;28;20221;-63
2023/10/12 04:19:34;;;;;;;8.40;4.70;;;19.90;69.10;;;;;;5075652;28;20273;-64
2023/10/12 04:24:54;;;;;;;9.60;4.57;;;19.90;69.00;;;;;;5068352;28;20309;-64
2023/10/12 04:30:20;;;;;;;9.40;4.97;;;19.90;69.10;;;;;;5069572;28;20231;-63
2023/10/12 04:32:57;;;;;;;8.93;4.80;;;19.90;69.20;;;;;;5075409;28;20186;-64
2023/10/12 04:35:44;;;;;;;13.70;5.43;;;19.90;69.10;;;;;;5074806;28;20222;-64
2023/10/12 04:38:24;;;;;;;7.38;4.88;;;19.90;69.10;;;;;;5075304;28;20222;-64
2023/10/12 04:43:38;;;;;;;11.52;4.97;;;19.80;69.10;;;;;;5057599;28;20253;-64
2023/10/12 04:48:51;;;;;;;10.57;5.57;;;19.90;69.40;;;;;;5074624;28;20195;-63
2023/10/12 04:51:18;;;;;;;8.98;5.20;;;19.90;69.30;;;;;;5074506;28;20305;-64
2023/10/12 04:53:57;;;;;;;8.95;4.50;;;19.90;69.30;;;;;;5074561;28;20187;-64
2023/10/12 04:56:36;;;;;;;7.97;4.80;;;19.90;69.30;;;;;;5074693;28;20222;-64
2023/10/12 04:59:26;;;;;;;11.70;5.10;;;19.90;69.30;;;;;;5074403;28;20190;-62
2023/10/12 05:02:14;;;;;;;9.40;4.88;;;19.90;69.50;;;;;;5074749;28;20716;-64
2023/10/12 05:05:14;;;;;;;9.63;4.78;;;19.90;69.40;;;;;;5074220;28;20668;-63
2023/10/12 05:07:54;;;;;;;10.93;5.28;;;19.90;69.40;;;;;;5073916;28;20203;-64
2023/10/12 05:10:27;;;;;;;11.35;4.80;;;19.80;69.30;;;;;;5074868;28;20229;-64
2023/10/12 05:13:03;;;;;;;10.45;5.10;;;19.90;69.50;;;;;;5074265;28;20202;-64
2023/10/12 05:15:39;;;;;;;10.05;5.03;;;19.90;69.50;;;;;;5074500;28;20305;-64
2023/10/12 05:18:22;;;;;;;12.10;5.00;;;19.90;69.50;;;;;;5074502;28;20193;-64
2023/10/12 05:24:08;;;;;;;8.70;5.28;;;19.90;69.50;;;;;;5049825;28;20679;-64
2023/10/12 05:26:36;;;;;;;12.18;5.35;;;19.90;69.60;;;;;;5073777;28;20837;-64
2023/10/12 05:29:35;;;;;;;9.98;5.32;;;19.90;69.60;;;;;;5074188;28;20231;-64
2023/10/12 05:32:06;;;;;;;7.85;5.15;;;19.90;69.60;;;;;;5074239;28;20711;-64
2023/10/12 05:34:44;;;;;;;10.00;4.97;;;19.80;69.50;;;;;;5073933;28;20183;-63
2023/10/12 05:37:24;;;;;;;8.50;4.82;;;19.90;69.60;;;;;;5074109;28;20221;-64
2023/10/12 05:39:52;;;;;;;13.32;5.63;;;19.90;69.60;;;;;;5074233;28;20222;-64
2023/10/12 05:42:22;;;;;;;9.02;5.10;;;19.90;69.70;;;;;;5073887;28;20215;-64
2023/10/12 05:44:53;;;;;;;9.18;5.07;;;19.80;69.50;;;;;;5073606;28;20236;-63
2023/10/12 05:47:28;;;;;;;7.78;5.20;;;19.90;69.60;;;;;;5074284;28;20302;-63
2023/10/12 05:49:57;;;;;;;9.07;5.53;;;19.90;69.60;;;;;;5073741;28;20191;-63
2023/10/12 05:52:25;;;;;;;8.10;5.05;;;19.90;69.70;;;;;;5073913;28;20223;-63
2023/10/12 05:54:57;;;;;;;9.55;5.00;;;19.90;69.70;;;;;;5073886;28;20191;-63
2023/10/12 05:57:29;;;;;;;7.85;4.93;;;19.90;69.70;;;;;;5073444;28;20254;-64
2023/10/12 05:59:59;;;;;;;11.98;5.13;;;19.90;69.80;;;;;;5073752;28;20183;-64
2023/10/12 06:02:28;;;;;;;10.07;4.78;;;19.90;69.80;;;;;;5073872;28;20702;-63
2023/10/12 06:04:56;;;;;;;9.95;4.75;;;19.90;69.70;;;;;;5073364;28;20198;-62
2023/10/12 06:07:24;;;;;;;10.40;5.30;;;19.90;69.80;;;;;;5073664;28;20215;-64
2023/10/12 06:09:53;;;;;;;15.50;4.88;;;19.90;69.80;;;;;;5073692;28;20203;-64
2023/10/12 06:12:24;;;;;;;9.68;4.90;;;19.90;69.90;;;;;;5073154;28;20776;-62
2023/10/12 06:14:54;;;;;;;9.05;4.97;;;19.80;69.80;;;;;;5073471;28;20187;-64
2023/10/12 06:17:30;;;;;;;7.78;5.32;;;19.90;70.00;;;;;;5073078;28;20229;-64
2023/10/12 06:20:01;;;;;;;8.90;4.85;;;19.90;70.00;;;;;;5072710;28;20194;-64
2023/10/12 06:22:33;;;;;;;12.88;5.05;;;19.90;70.10;;;;;;5073633;28;20221;-64
2023/10/12 06:25:08;;;;;;;10.13;5.15;;;19.90;70.80;;;;;;5073209;28;20198;-64
2023/10/12 06:27:37;;;;;;;7.75;4.70;;;19.90;70.10;;;;;;5072627;28;20194;-63
2023/10/12 06:30:16;;;;;;;10.63;5.03;;;19.90;70.10;;;;;;5073161;28;20234;-64
2023/10/12 06:32:47;;;;;;;12.75;5.25;;;19.80;70.00;;;;;;5071959;28;20198;-64
2023/10/12 06:35:24;;;;;;;10.77;5.05;;;19.80;70.10;;;;;;5072766;28;20191;-64
2023/10/12 06:44:55;;;;;;;10.00;5.47;;;19.90;70.30;;;;;;5051761;28;20175;-65
2023/10/12 06:47:28;;;;;;;11.10;4.97;;;19.80;70.20;;;;;;5063464;28;20221;-63
2023/10/12 06:50:00;;;;;;;8.80;5.28;;;19.80;70.20;;;;;;5071309;28;20619;-64
2023/10/12 06:52:29;;;;;;;11.68;5.03;;;19.80;70.20;;;;;;5070191;28;20221;-64
2023/10/12 06:54:59;;;;;;;10.00;5.22;;;19.80;70.20;;;;;;5066421;28;20602;-65
2023/10/12 06:57:38;;;;;;;11.90;5.18;;;19.90;70.80;;;;;;5030820;28;20223;-65
2023/10/12 07:00:29;;;;;;;10.07;5.20;;;19.90;70.50;;;;;;5066120;28;20290;-64
2023/10/12 07:09:27;;;;;;;11.23;5.25;;;20.00;70.90;;;;;;4980798;28;20315;-64
2023/10/12 07:11:58;;;;;;;14.88;5.35;;;20.00;70.90;;;;;;4998896;28;20234;-64
2023/10/12 07:14:37;;;;;;;9.77;5.15;;;20.10;71.00;;;;;;5068322;28;20202;-63
2023/10/12 07:17:07;;;;;;;12.02;5.15;;;20.20;71.00;;;;;;5070810;28;20565;-64
2023/10/12 07:19:35;;;;;;;10.95;4.93;;;20.30;70.80;;;;;;5070007;28;20221;-63
2023/10/12 07:22:08;;;;;;;11.15;5.10;;;20.40;70.70;;;;;;5071214;28;20272;-64
2023/10/12 07:24:38;;;;;;;15.52;5.53;;;20.50;70.70;;;;;;5070601;28;20195;-63
2023/10/12 07:27:11;;;;;;;7.97;4.95;;;20.50;70.50;;;;;;5069309;28;20326;-63
2023/10/12 07:30:08;;;;;;;14.10;5.03;;;20.60;70.60;;;;;;5069307;28;20253;-64
2023/10/12 07:32:54;;;;;;;17.63;5.30;;;20.50;70.40;;;;;;4988940;28;20230;-64
2023/10/12 07:35:31;;;;;;;14.38;5.75;;;20.70;70.50;;;;;;4988012;28;20455;-65
2023/10/12 07:38:28;;;;;;;10.48;5.47;;;20.70;70.50;;;;;;4986558;28;20288;-65
2023/10/12 07:41:01;;;;;;;14.93;5.07;;;20.80;70.30;;;;;;4986825;28;20951;-65
2023/10/12 07:56:16;;;;;;;9.02;4.68;;;21.00;70.10;;;;;;4756567;29;20249;-65
2023/10/12 07:58:57;;;;;;;14.98;5.43;;;21.00;70.10;;;;;;4807520;29;20215;-62
2023/10/12 08:08:09;;;;;;;8.90;4.65;;;21.00;70.00;;;;;;4790293;29;20651;-65
2023/10/12 08:13:54;;;;;;;13.63;4.65;;;21.10;70.00;;;;;;4781082;30;20280;-65
2023/10/12 08:23:38;;;;;;;11.30;4.65;;;21.20;69.90;;;;;;4927561;29;20331;-65
2023/10/12 08:26:21;;;;;;;14.05;4.93;;;21.20;69.80;;;;;;4932153;28;20242;-65
2023/10/12 08:32:55;;;;;;;11.00;4.38;;;21.20;69.80;;;;;;5008279;28;20277;-64
2023/10/12 08:41:20;;;;;;;7.38;4.85;;;21.20;69.80;;;;;;5044950;28;20199;-63
2023/10/12 08:43:52;;;;;;;11.35;4.10;;;21.30;69.80;;;;;;5049562;28;20650;-65
2023/10/12 08:47:05;;;;;;;;;;;;;;;;;;;;;
2023/10/12 08:52:40;;;;;;;8.00;4.35;;;21.40;69.70;;;;;;5021552;28;20226;-67
2023/10/12 08:55:11;;;;;;;11.55;3.90;;;21.40;69.70;;;;;;5046592;28;20226;-64
2023/10/12 09:00:44;;;;;;;9.32;4.25;;;21.40;69.70;;;;;;5045131;28;20246;-65
2023/10/12 09:03:37;;;;;;;;;;;;;;;;;;;;;
2023/10/12 09:07:03;;;;;;;10.73;4.32;;;21.50;69.70;;;;;;4994390;28;20220;-65
2023/10/12 09:10:48;;;;;;;;;;;;;;;;;;;;;
2023/10/12 09:12:52;;;;;;;6.18;3.60;;;21.40;69.40;;;;;;5040071;28;20239;-64
2023/10/12 09:15:30;;;;;;;6.38;4.00;;;21.40;69.60;;;;;;5051768;28;20187;-65
2023/10/12 09:18:44;;;;;;;14.15;4.60;;;21.40;69.70;;;;;;5037896;28;20282;-67
2023/10/12 09:21:42;;;;;;;7.57;4.05;;;21.40;69.80;;;;;;4925786;29;20645;-65
2023/10/12 09:24:50;;;;;;;7.15;4.18;;;21.40;69.90;;;;;;4882894;29;20229;-65
2023/10/12 09:27:49;;;;;;;10.25;4.10;;;21.30;69.90;;;;;;4806966;29;20244;-66
2023/10/12 09:59:51;;;;;;;11.48;4.07;;;21.40;70.30;;;;;;4827964;29;20207;-66
2023/10/12 10:02:28;;;;;;;12.50;4.05;;;21.40;70.20;;;;;;4913485;29;20713;-65
2023/10/12 10:05:11;;;;;;;11.95;3.70;;;21.50;70.30;;;;;;4913558;29;20413;-67
2023/10/12 10:07:53;;;;;;;;;;;;;;;;;;;;;
2023/10/12 10:13:48;;;;;;;11.20;3.53;;;21.50;70.30;;;;;;5010086;28;20220;-66
2023/10/12 10:19:32;;;;;;;14.98;3.35;;;21.50;70.30;;;;;;5008930;28;20225;-66
2023/10/12 10:22:06;;;;;;;7.93;3.95;;;21.50;70.10;;;;;;5050080;28;20211;-66
2023/10/12 10:24:58;;;;;;;8.77;4.47;;;21.60;70.10;;;;;;5049786;28;20223;-66
2023/10/12 10:27:34;;;;;;;7.00;3.40;;;21.50;70.00;;;;;;5050240;28;20222;-66
2023/10/12 10:30:24;;;;;;;7.55;3.00;;;21.50;70.10;;;;;;5064892;28;20312;-66
2023/10/12 10:33:12;;;;;;;7.63;3.22;;;21.40;70.00;;;;;;5051793;28;20712;-66
2023/10/12 10:42:07;;;;;;;6.07;2.70;;;21.30;70.10;;;;;;4989357;28;20244;-65
2023/10/12 10:44:46;;;;;;;9.70;3.08;;;21.20;70.10;;;;;;5008246;28;20217;-66
2023/10/12 10:47:32;;;;;;;6.07;3.00;;;21.10;70.10;;;;;;5009217;28;20699;-66
2023/10/12 10:50:43;;;;;;;5.50;3.05;;;21.20;70.30;;;;;;4994917;28;20221;-65
2023/10/12 10:53:31;;;;;;;8.65;2.85;;;21.10;70.30;;;;;;4987462;28;20214;-65
2023/10/12 10:56:00;;;;;;;5.10;2.60;;;21.10;70.50;;;;;;4988717;28;20233;-66
2023/10/12 10:58:40;;;;;;;4.00;2.60;;;21.10;70.50;;;;;;5007001;28;20257;-65
2023/10/12 11:01:37;;;;;;;5.03;2.50;;;21.00;70.50;;;;;;5008627;28;20344;-65
2023/10/12 11:04:36;;;;;;;5.43;2.95;;;21.00;70.60;;;;;;4992563;28;20227;-66
2023/10/12 11:07:11;;;;;;;3.70;2.92;;;21.00;70.70;;;;;;5008770;28;20236;-65
2023/10/12 11:10:31;;;;;;;7.07;3.00;;;21.00;70.70;;;;;;5009097;28;20216;-66
2023/10/12 11:13:00;;;;;;;5.50;3.00;;;21.00;70.80;;;;;;5041580;28;20673;-64
2023/10/12 11:18:17;;;;;;;4.97;2.78;;;21.00;70.70;;;;;;4962239;28;20226;-65
2023/10/12 11:20:55;;;;;;;4.18;2.55;;;21.00;70.70;;;;;;5053444;28;20199;-65
2023/10/12 11:26:20;;;;;;;4.50;2.55;;;21.00;70.70;;;;;;5048792;28;20195;-65
2023/10/12 11:29:02;;;;;;;4.78;2.65;;;21.00;70.70;;;;;;5051087;28;20239;-65
2023/10/12 11:31:31;;;;;;;6.03;2.47;;;21.00;70.80;;;;;;5050366;28;20253;-65
2023/10/12 11:33:59;;;;;;;5.53;2.40;;;21.00;70.80;;;;;;5050820;28;20215;-65
2023/10/12 11:36:27;;;;;;;3.80;2.20;;;21.00;70.80;;;;;;5065220;28;20217;-65
2023/10/12 11:39:00;;;;;;;3.70;2.28;;;21.00;70.80;;;;;;5090884;28;20304;-65
2023/10/12 11:41:30;;;;;;;7.75;2.50;;;21.00;70.80;;;;;;5091300;28;20200;-65
2023/10/12 11:46:59;;;;;;;5.07;2.63;;;21.00;70.80;;;;;;5064326;28;20286;-65
2023/10/12 11:49:26;;;;;;;5.53;2.70;;;20.90;70.70;;;;;;5052001;28;20310;-65
2023/10/12 11:51:57;;;;;;;5.35;2.58;;;21.00;70.80;;;;;;5069840;28;20183;-65
2023/10/12 11:54:33;;;;;;;5.78;2.50;;;21.00;70.90;;;;;;5071032;28;20214;-66
2023/10/12 11:57:53;;;;;;;4.47;2.42;;;20.90;71.00;;;;;;5071035;28;20195;-65
2023/10/12 12:00:36;;;;;;;18.70;2.38;;;20.90;70.90;;;;;;4988754;28;20290;-66
2023/10/12 12:03:21;;;;;;;5.40;2.88;;;20.90;70.80;;;;;;4942179;28;20750;-67
2023/10/12 12:06:02;;;;;;;;;;;;;;;;;;;;;
2023/10/12 12:08:40;;;;;;;4.03;2.20;;;20.90;70.80;;;;;;4984729;28;20233;-66
2023/10/12 12:11:31;;;;;;;5.90;2.42;;;20.90;70.90;;;;;;4942742;28;20217;-62
2023/10/12 12:20:38;;;;;;;4.00;2.17;;;20.90;71.30;;;;;;4871289;29;20230;-65
2023/10/12 12:33:15;;;;;;;9.27;4.47;;;21.00;71.00;;;;;;4788973;29;20224;-66
2023/10/12 12:36:12;;;;;;;12.38;5.60;;;21.00;71.00;;;;;;4873069;29;20193;-65
2023/10/12 12:41:51;;;;;;;;;;;;;;;;;;;;;
2023/10/12 12:47:33;;;;;;;13.23;6.20;;;21.10;70.70;;;;;;4846637;28;20234;-68
2023/10/12 12:53:23;;;;;;;8.65;5.00;;;21.20;70.70;;;;;;4902676;29;20245;-65
2023/10/12 13:09:28;;;;;;;8.98;4.20;;;21.30;70.30;;;;;;5062424;28;20659;-62
2023/10/12 13:15:21;;;;;;;7.03;3.58;;;21.30;70.20;;;;;;5047899;28;20840;-64
2023/10/12 13:17:49;;;;;;;7.30;3.65;;;21.30;70.20;;;;;;5067315;28;20198;-64
2023/10/12 13:30:38;;;;;;;7.93;3.53;;;21.40;70.20;;;;;;5056067;28;20372;-63
2023/10/12 13:35:58;;;;;;;;;;;;;;;;;;;;;
2023/10/12 13:38:37;;;;;;;6.28;3.20;;;21.40;70.10;;;;;;5026147;28;20748;-64
2023/10/12 13:45:04;;;;;;;8.85;3.40;;;21.40;70.20;;;;;;5066549;28;20217;-64
2023/10/12 13:48:02;;;;;;;6.28;2.90;;;21.40;70.20;;;;;;5064256;28;20228;-64
2023/10/12 13:56:04;;;;;;;;;;;;;;;;;;;;;
2023/10/12 13:59:24;;;;;;;14.35;2.88;;;21.50;70.30;;;;;;5014294;28;20210;-63
2023/10/12 14:01:52;;;;;;;10.30;2.75;;;21.50;70.40;;;;;;5065970;28;20202;-65
2023/10/12 14:04:29;;;;;;;5.43;2.72;;;21.50;70.40;;;;;;5068235;28;20217;-64
2023/10/12 14:17:25;;;;;;;6.65;3.08;;;21.60;70.40;;;;;;4880317;29;20245;-64
2023/10/12 14:36:23;;;;;;;5.47;2.30;;;21.70;70.60;;;;;;4789478;29;20228;-64
2023/10/12 14:46:54;;;;;;;;;;;;;;;;;;;;;
2023/10/12 14:56:08;;;;;;;3.67;1.88;;;21.70;70.90;;;;;;4981567;28;20349;-63
2023/10/12 14:58:35;;;;;;;11.02;1.83;;;21.70;70.90;;;;;;5042130;28;20253;-63
2023/10/12 15:05:02;;;;;;;4.22;1.50;;;21.70;70.90;;;;;;4985485;28;20558;-64
2023/10/12 15:17:18;;;;;;;6.53;1.90;;;21.70;71.10;;;;;;4920827;29;20257;-64
2023/10/12 16:07:18;;;;;;;5.68;1.88;;;21.80;70.50;;;;;;4916956;29;20228;-63
2023/10/12 16:11:02;;;;;;;;;;;;;;;;;;;;;
2023/10/12 16:18:08;;;;;;;;;;;;;;;;;;;;;
2023/10/12 16:20:52;;;;;;;4.68;1.88;;;21.80;70.40;;;;;;4905941;28;20699;-64
2023/10/12 16:24:18;;;;;;;9.55;2.38;;;21.80;70.40;;;;;;4976406;28;20226;-65
2023/10/12 16:26:48;;;;;;;5.25;1.77;;;21.80;70.60;;;;;;4973607;28;20226;-64
2023/10/12 16:36:29;;;;;;;5.43;1.90;;;21.80;70.50;;;;;;4984794;28;20753;-65
2023/10/12 16:42:20;;;;;;;9.73;1.95;;;21.80;70.50;;;;;;4868592;28;20367;-64
2023/10/12 16:47:52;;;;;;;4.47;1.88;;;21.70;70.40;;;;;;4938605;28;20754;-65
2023/10/12 16:50:26;;;;;;;6.95;2.20;;;21.70;70.30;;;;;;4982483;28;20201;-63
2023/10/12 16:53:27;;;;;;;4.43;1.90;;;21.60;70.30;;;;;;4983095;28;20832;-65
2023/10/12 16:59:32;;;;;;;4.88;1.40;;;21.70;70.30;;;;;;4905552;29;20237;-64
2023/10/12 17:21:12;;;;;;;3.85;1.70;;;21.60;70.50;;;;;;4867758;29;20807;-66
2023/10/12 17:27:02;;;;;;;4.63;1.70;;;21.50;70.40;;;;;;4906303;29;20208;-65
2023/10/12 17:29:30;;;;;;;3.55;1.67;;;21.60;70.50;;;;;;4909879;29;20314;-65
2023/10/12 17:35:40;;;;;;;4.43;1.55;;;21.50;70.40;;;;;;4980412;28;20311;-66
2023/10/12 17:40:48;;;;;;;4.50;1.60;;;21.50;70.40;;;;;;5020394;28;20199;-65
2023/10/12 17:56:25;;;;;;;3.17;1.55;;;21.50;70.60;;;;;;4807132;29;20242;-66
2023/10/12 17:59:16;;;;;;;3.95;1.35;;;21.50;70.60;;;;;;4852482;29;20254;-66
2023/10/12 18:01:47;;;;;;;3.97;1.80;;;21.50;70.60;;;;;;4847194;29;20310;-66
2023/10/12 18:04:16;;;;;;;5.85;1.50;;;21.50;70.50;;;;;;4855190;29;20278;-65
2023/10/12 18:06:44;;;;;;;4.55;1.30;;;21.50;70.50;;;;;;4857187;29;20210;-65
2023/10/12 18:09:16;;;;;;;4.03;1.33;;;21.50;70.40;;;;;;4858391;29;20250;-65
2023/10/12 18:11:46;;;;;;;3.65;1.45;;;21.40;70.40;;;;;;4858665;29;20211;-66
2023/10/12 18:14:17;;;;;;;3.95;1.83;;;21.30;70.30;;;;;;4856888;29;20426;-66
2023/10/12 18:16:45;;;;;;;3.60;1.50;;;21.40;70.50;;;;;;4858652;29;20254;-66
2023/10/12 18:19:13;;;;;;;3.58;2.22;;;21.30;70.50;;;;;;4858632;29;20243;-66
2023/10/12 18:21:45;;;;;;;3.92;1.42;;;21.30;70.50;;;;;;4875713;29;20202;-66
2023/10/12 18:24:13;;;;;;;5.25;1.60;;;21.30;70.50;;;;;;5002775;28;20220;-65
2023/10/12 18:26:40;;;;;;;4.40;1.40;;;21.20;70.50;;;;;;5032916;28;20192;-65
2023/10/12 18:29:09;;;;;;;3.45;1.33;;;21.20;70.50;;;;;;5032613;28;20243;-66
2023/10/12 18:31:48;;;;;;;;;;;;;;;;;;;;;
2023/10/12 18:34:16;;;;;;;5.15;1.52;;;21.10;70.60;;;;;;5032903;28;20216;-66
2023/10/12 18:36:43;;;;;;;3.75;1.70;;;21.10;70.70;;;;;;5032713;28;20200;-66
2023/10/12 18:39:13;;;;;;;2.63;1.50;;;21.10;70.80;;;;;;5032882;28;20223;-66
2023/10/12 18:41:41;;;;;;;4.97;1.42;;;21.10;70.90;;;;;;5032856;28;20556;-66
2023/10/12 18:44:23;;;;;;;4.32;1.75;;;21.10;70.90;;;;;;5032759;28;20228;-66
2023/10/12 18:47:11;;;;;;;2.85;1.30;;;21.10;70.90;;;;;;5032954;28;20203;-66
2023/10/12 18:52:53;;;;;;;3.38;1.58;;;21.00;70.80;;;;;;4980996;28;20200;-65
2023/10/12 18:55:21;;;;;;;3.67;1.40;;;21.00;70.90;;;;;;5032468;28;20283;-66
2023/10/12 18:57:48;;;;;;;3.40;1.73;;;21.00;70.80;;;;;;5032108;28;20203;-66
2023/10/12 19:00:19;;;;;;;3.70;1.40;;;21.00;70.90;;;;;;5032502;28;20713;-66
2023/10/12 19:02:49;;;;;;;5.72;1.90;;;21.00;70.90;;;;;;5032330;28;20231;-66
2023/10/12 19:05:17;;;;;;;2.95;1.38;;;21.00;70.80;;;;;;5032400;28;20275;-66
2023/10/12 19:07:45;;;;;;;6.90;1.92;;;20.90;70.70;;;;;;5032725;28;20192;-66
2023/10/12 19:10:15;;;;;;;3.55;1.65;;;21.00;70.80;;;;;;5032314;28;20260;-65
2023/10/12 19:12:43;;;;;;;3.90;1.52;;;20.90;70.70;;;;;;5032256;28;20193;-66
2023/10/12 19:15:15;;;;;;;4.38;1.40;;;20.90;70.70;;;;;;5032639;28;20259;-66
2023/10/12 19:17:44;;;;;;;4.20;1.65;;;20.90;70.80;;;;;;5032256;28;20673;-66
2023/10/12 19:20:12;;;;;;;3.47;1.38;;;20.90;70.90;;;;;;5032202;28;20216;-66
2023/10/12 19:22:39;;;;;;;3.83;1.73;;;20.90;70.90;;;;;;5032435;28;20196;-65
2023/10/12 19:25:08;;;;;;;2.80;1.42;;;20.90;70.90;;;;;;5032364;28;20220;-66
2023/10/12 19:27:35;;;;;;;5.40;1.63;;;20.90;70.90;;;;;;5032075;28;20262;-66
2023/10/12 19:30:09;;;;;;;3.00;1.45;;;20.90;70.90;;;;;;5039184;28;20231;-66
2023/10/12 19:32:36;;;;;;;4.20;1.30;;;20.90;70.90;;;;;;5052296;28;20673;-66
2023/10/12 19:35:08;;;;;;;4.45;2.00;;;20.90;70.90;;;;;;5052075;28;20226;-66
2023/10/12 19:40:17;;;;;;;2.45;1.33;;;20.80;70.80;;;;;;5010164;28;20189;-66
2023/10/12 19:42:44;;;;;;;3.83;2.03;;;20.80;70.90;;;;;;5009771;28;20212;-66
2023/10/12 19:45:12;;;;;;;8.20;1.60;;;20.80;70.90;;;;;;5010131;28;20267;-66
2023/10/12 19:47:40;;;;;;;3.50;1.50;;;20.90;71.00;;;;;;5010153;28;20291;-66
2023/10/12 19:50:10;;;;;;;2.67;1.38;;;20.80;70.90;;;;;;5009593;28;20233;-66
2023/10/12 19:52:38;;;;;;;4.82;1.65;;;20.80;70.90;;;;;;5010124;28;20208;-66
2023/10/12 19:55:06;;;;;;;3.50;1.80;;;20.80;70.90;;;;;;5010108;28;20304;-66
2023/10/12 19:57:35;;;;;;;5.07;1.65;;;20.80;71.00;;;;;;5009533;28;20201;-66
2023/10/12 20:00:23;;;;;;;4.25;1.50;;;20.80;70.90;;;;;;5009967;28;20225;-66
2023/10/12 20:02:54;;;;;;;4.22;1.83;;;20.80;71.00;;;;;;5009672;28;20200;-66
2023/10/12 20:05:24;;;;;;;2.58;1.40;;;20.70;70.90;;;;;;5009699;28;20569;-66
2023/10/12 20:07:51;;;;;;;2.90;1.50;;;20.80;71.00;;;;;;5009876;28;20255;-66
2023/10/12 20:10:48;;;;;;;3.33;1.38;;;20.80;71.00;;;;;;5009798;28;20229;-66
2023/10/12 20:16:54;;;;;;;3.72;1.60;;;20.70;71.00;;;;;;5014034;28;20194;-66
2023/10/12 20:19:24;;;;;;;3.00;1.30;;;20.70;71.00;;;;;;5041586;28;20310;-66
2023/10/12 20:21:54;;;;;;;2.38;1.33;;;20.80;71.10;;;;;;5051773;28;20242;-66